Terminal Aerodrome Forecast
Issued by NWS

Home | Current Version | Previous Version | Graphics & Text | Print | Product List | Glossary On
Versions: 1 2 3 4 5 6 7 8 9 10 11 12 13 14 15 16 17 18 19 20 21 22 23 24 25 26
056
FTUS43 KABR 191739 AAA
TAFATY
TAF AMD
KATY 191739Z 1918/2018 02020G33KT P6SM BKN015
     FM191900 02021G29KT P6SM BKN050
     FM192100 03019G27KT P6SM SCT130
     FM200300 03008KT P6SM SCT200=

USA.gov is the U.S. government's official web portal to all federal, state and local government web resources and services.